Time;durP1;ratioP1;P1;durP2;ratioP2;P2;SDS_P1;SDS_P2;PMS_P1;PMS_P2;Temp;Humidity;BMP_temperature;BMP_pressure;BME280_temperature;BME280_humidity;BME280_pressure;Samples;Min_cycle;Max_cycle;Signal;HPM_P1;HPM_P2
2021/01/06 00:01:18;;;;;;;6.77;5.87;;;;;;;4.55;68.21;101534.78;5118174;28;20425;-70
2021/01/06 00:03:44;;;;;;;5.30;4.67;;;;;;;4.97;67.52;101535.84;5121712;28;20210;-69
2021/01/06 00:06:12;;;;;;;5.80;4.40;;;;;;;3.82;69.79;101534.72;5121041;28;20416;-70
2021/01/06 00:08:43;;;;;;;8.23;5.13;;;;;;;5.01;66.49;101532.56;5120656;28;20176;-70
2021/01/06 00:11:08;;;;;;;7.60;4.90;;;;;;;9.58;62.18;101519.44;5099932;28;20417;-64
2021/01/06 00:13:34;;;;;;;8.70;4.90;;;;;;;6.77;60.55;101526.91;5100818;28;20402;-67
2021/01/06 00:15:59;;;;;;;5.27;4.77;;;;;;;5.35;63.59;101529.75;5100358;28;20612;-68
2021/01/06 00:18:25;;;;;;;4.80;4.40;;;;;;;4.91;66.17;101528.66;5100414;28;20172;-68
2021/01/06 00:20:51;;;;;;;5.83;4.80;;;;;;;4.78;65.61;101537.56;5100474;28;20183;-68
2021/01/06 00:23:16;;;;;;;5.37;4.87;;;;;;;5.05;64.60;101529.31;5099705;28;20454;-68
2021/01/06 00:25:42;;;;;;;7.27;4.80;;;;;;;4.19;68.44;101531.34;5099557;28;20322;-68
2021/01/06 00:28:10;;;;;;;8.50;5.70;;;;;;;4.82;65.94;101525.69;5099170;28;20164;-68
2021/01/06 00:30:41;;;;;;;4.90;4.50;;;;;;;4.47;66.69;101524.94;5099283;28;20173;-67
2021/01/06 00:33:09;;;;;;;5.90;5.23;;;;;;;4.19;67.63;101527.09;5099488;28;20501;-67
2021/01/06 00:35:35;;;;;;;6.60;4.97;;;;;;;4.71;66.22;101526.06;5098833;28;20447;-68
2021/01/06 00:38:01;;;;;;;5.20;4.70;;;;;;;4.21;67.45;101524.56;5099413;28;20418;-67
2021/01/06 00:40:29;;;;;;;6.70;6.00;;;;;;;4.48;67.15;101525.00;5099674;28;20176;-68
2021/01/06 00:42:57;;;;;;;5.27;4.77;;;;;;;5.06;64.62;101515.56;5099237;28;20438;-67
2021/01/06 00:45:23;;;;;;;6.03;5.17;;;;;;;4.34;67.55;101520.88;5099256;28;20471;-68
2021/01/06 00:47:48;;;;;;;6.17;5.10;;;;;;;4.26;67.25;101527.34;5099516;28;20450;-67
2021/01/06 00:50:14;;;;;;;5.90;4.83;;;;;;;4.47;66.34;101517.19;5099144;28;20225;-68
2021/01/06 00:52:39;;;;;;;5.43;4.87;;;;;;;4.49;66.29;101512.97;5099030;28;20204;-67
2021/01/06 00:55:05;;;;;;;5.53;5.03;;;;;;;4.24;68.07;101508.34;5099610;28;20172;-68
2021/01/06 00:57:31;;;;;;;7.70;5.00;;;;;;;4.32;66.50;101513.06;5099078;28;20213;-68
2021/01/06 00:59:56;;;;;;;5.97;5.20;;;;;;;4.62;66.28;101506.69;5098916;28;20414;-68
2021/01/06 01:02:21;;;;;;;6.03;5.43;;;;;;;4.58;66.73;101504.78;5099482;28;20418;-68
2021/01/06 01:04:46;;;;;;;5.67;4.80;;;;;;;3.99;67.35;101497.72;5098797;28;20215;-68
2021/01/06 01:07:12;;;;;;;6.07;5.00;;;;;;;4.83;65.90;101506.75;5098900;28;20277;-69
2021/01/06 01:09:38;;;;;;;6.03;5.23;;;;;;;4.44;66.31;101507.59;5099162;28;20176;-68
2021/01/06 01:12:08;;;;;;;6.20;5.10;;;;;;;3.84;68.49;101502.13;5097653;28;20410;-69
2021/01/06 01:14:33;;;;;;;7.43;5.90;;;;;;;4.49;67.06;101505.22;5099001;28;20255;-68
2021/01/06 01:17:01;;;;;;;5.90;5.10;;;;;;;4.24;68.03;101504.06;5099157;28;20494;-69
2021/01/06 01:19:26;;;;;;;5.20;4.70;;;;;;;4.27;66.92;101504.19;5098672;28;20203;-69
2021/01/06 01:21:51;;;;;;;6.20;5.33;;;;;;;4.46;66.61;101500.78;5098644;28;20441;-68
2021/01/06 01:24:17;;;;;;;5.67;4.87;;;;;;;4.68;65.36;101496.63;5098581;28;20275;-68
2021/01/06 01:26:42;;;;;;;6.70;5.37;;;;;;;4.78;66.26;101490.19;5098413;28;20231;-68
2021/01/06 01:29:07;;;;;;;6.67;5.10;;;;;;;4.72;65.96;101494.25;5098762;28;20556;-68
2021/01/06 01:31:35;;;;;;;5.53;4.97;;;;;;;4.53;65.60;101491.63;5098746;28;20179;-68
2021/01/06 01:34:01;;;;;;;6.07;5.47;;;;;;;4.35;67.29;101487.38;5098745;28;20172;-68
2021/01/06 01:36:29;;;;;;;5.80;4.63;;;;;;;5.02;65.01;101486.13;5098893;28;20902;-68
2021/01/06 01:38:55;;;;;;;6.30;4.73;;;;;;;4.67;65.09;101479.38;5114759;28;20477;-67
2021/01/06 01:41:23;;;;;;;5.07;4.50;;;;;;;4.35;66.38;101481.34;5098227;28;20509;-67
2021/01/06 01:43:49;;;;;;;5.33;4.83;;;;;;;4.63;65.19;101485.22;5098735;28;20172;-68
2021/01/06 01:46:52;;;;;;;5.40;4.70;;;;;;;3.95;67.31;101477.75;5098220;28;20514;-68
2021/01/06 01:49:22;;;;;;;5.67;5.17;;;;;;;4.48;65.66;101478.53;5098503;28;20465;-68
2021/01/06 01:51:58;;;;;;;6.17;5.23;;;;;;;4.80;64.80;101470.47;5097539;28;20414;-68
2021/01/06 01:54:25;;;;;;;6.33;4.87;;;;;;;4.55;65.94;101467.66;5097595;28;20418;-67
2021/01/06 01:57:18;;;;;;;6.07;4.93;;;;;;;4.81;67.18;101464.50;5114395;28;20402;-67
2021/01/06 01:59:55;;;;;;;7.00;5.20;;;;;;;4.34;65.46;101464.06;5111659;28;20484;-68
2021/01/06 02:02:33;;;;;;;6.00;5.30;;;;;;;4.91;64.16;101458.91;5097575;28;20854;-68
2021/01/06 02:05:05;;;;;;;6.43;5.10;;;;;;;4.18;66.03;101457.31;5098123;28;20497;-68
2021/01/06 02:07:35;;;;;;;6.00;4.80;;;;;;;4.72;65.48;101452.94;5097163;28;20466;-68
2021/01/06 02:10:19;;;;;;;5.63;5.07;;;;;;;4.48;64.97;101451.78;5097198;28;20422;-68
2021/01/06 02:12:53;;;;;;;6.13;4.70;;;;;;;4.82;64.61;101453.34;5097924;28;20493;-69
2021/01/06 02:15:27;;;;;;;5.73;4.60;;;;;;;4.29;65.39;101456.13;5097176;28;21208;-68
2021/01/06 02:17:53;;;;;;;7.67;4.67;;;;;;;4.45;66.06;101447.41;5097830;28;20683;-68
2021/01/06 02:20:21;;;;;;;5.73;5.10;;;;;;;4.35;66.26;101450.38;5097700;28;20426;-69
2021/01/06 02:22:47;;;;;;;5.40;4.67;;;;;;;5.08;63.62;101448.44;5098068;28;20217;-69
2021/01/06 02:25:14;;;;;;;4.90;4.50;;;;;;;4.80;64.93;101440.34;5097030;28;20458;-69
2021/01/06 02:27:39;;;;;;;5.07;4.60;;;;;;;4.73;66.59;101435.72;5097368;28;20196;-68
2021/01/06 02:30:06;;;;;;;5.20;4.57;;;;;;;4.30;66.55;101439.84;5096829;28;20837;-69
2021/01/06 02:32:32;;;;;;;6.70;5.10;;;;;;;4.87;65.59;101432.06;5097053;28;20172;-69
2021/01/06 02:34:57;;;;;;;6.23;5.40;;;;;;;5.06;65.96;101428.56;5097281;28;20431;-69
2021/01/06 02:37:23;;;;;;;6.20;4.83;;;;;;;4.82;67.58;101430.97;5097777;28;20270;-68
2021/01/06 02:39:50;;;;;;;7.13;5.37;;;;;;;4.64;65.27;101432.72;5097595;28;20175;-68
2021/01/06 02:42:15;;;;;;;9.00;5.03;;;;;;;4.86;65.73;101429.41;5098160;28;20577;-68
2021/01/06 02:44:41;;;;;;;6.50;4.93;;;;;;;4.37;66.20;101431.56;5097592;28;20440;-68
2021/01/06 02:47:06;;;;;;;5.37;4.87;;;;;;;4.81;66.12;101433.50;5096748;28;20210;-68
2021/01/06 02:49:32;;;;;;;5.50;4.80;;;;;;;4.50;66.64;101432.09;5097731;28;20172;-67
2021/01/06 02:52:39;;;;;;;5.40;4.90;;;;;;;4.45;66.13;101425.84;5096749;28;20176;-68
2021/01/06 02:55:06;;;;;;;8.27;5.57;;;;;;;4.48;65.92;101425.97;5095308;28;20180;-68
2021/01/06 02:57:33;;;;;;;6.83;5.37;;;;;;;4.57;66.22;101418.66;5096688;28;20420;-68
2021/01/06 02:59:58;;;;;;;7.00;5.37;;;;;;;4.92;64.35;101414.16;5096551;28;20414;-68
2021/01/06 03:02:24;;;;;;;7.10;4.77;;;;;;;4.17;65.86;101409.97;5097671;28;20436;-68
2021/01/06 03:04:58;;;;;;;5.90;5.10;;;;;;;4.53;65.71;101406.41;5096266;28;20164;-68
2021/01/06 03:07:24;;;;;;;5.47;4.90;;;;;;;4.82;64.63;101412.00;5113357;28;20245;-68
2021/01/06 03:09:49;;;;;;;5.87;5.33;;;;;;;4.93;64.22;101408.19;5096388;28;20424;-68
2021/01/06 03:12:22;;;;;;;9.33;5.20;;;;;;;4.52;65.45;101397.81;5097193;28;20500;-68
2021/01/06 03:14:48;;;;;;;6.13;5.40;;;;;;;4.36;65.32;101400.50;5113749;28;20161;-67
2021/01/06 03:17:15;;;;;;;6.47;5.50;;;;;;;4.16;67.10;101403.03;5097223;28;20433;-67
2021/01/06 03:19:45;;;;;;;9.80;6.10;;;;;;;4.43;65.27;101393.94;5096487;28;20222;-69
2021/01/06 03:22:11;;;;;;;6.80;6.10;;;;;;;4.79;64.94;101388.59;5096735;28;20471;-68
2021/01/06 03:24:41;;;;;;;6.93;6.23;;;;;;;4.64;65.32;101392.31;5096103;28;20462;-67
2021/01/06 03:27:08;;;;;;;8.30;5.80;;;;;;;4.44;65.91;101394.00;5096332;28;20875;-68
2021/01/06 03:29:34;;;;;;;5.90;5.30;;;;;;;4.75;64.49;101394.47;5079625;28;20414;-67
2021/01/06 03:32:05;;;;;;;6.80;5.40;;;;;;;4.11;67.12;101391.63;5096355;28;20422;-69
2021/01/06 03:34:37;;;;;;;6.97;5.97;;;;;;;4.27;66.52;101389.75;5096293;28;20501;-68
2021/01/06 03:37:23;;;;;;;6.93;5.90;;;;;;;4.46;65.68;101382.00;5099914;28;20827;-68
2021/01/06 03:40:11;;;;;;;6.83;5.50;;;;;;;4.52;65.70;101376.28;5100005;28;20669;-68
2021/01/06 03:42:36;;;;;;;7.67;5.93;;;;;;;4.45;65.10;101374.22;5116745;28;20434;-68
2021/01/06 03:45:03;;;;;;;7.40;5.77;;;;;;;4.74;64.52;101372.91;5100242;28;20471;-68
2021/01/06 03:47:33;;;;;;;7.33;6.57;;;;;;;4.75;65.01;101371.22;5100501;28;20236;-68
2021/01/06 03:50:22;;;;;;;6.30;5.70;;;;;;;3.94;65.90;101370.22;5099883;28;20444;-68
2021/01/06 03:53:18;;;;;;;8.30;6.27;;;;;;;4.30;66.81;101364.06;5099984;28;20687;-68
2021/01/06 03:55:52;;;;;;;6.27;5.67;;;;;;;4.37;64.96;101359.28;5100767;28;20402;-68
2021/01/06 03:58:30;;;;;;;9.23;6.37;;;;;;;4.33;65.43;101359.03;5116889;28;20416;-68
2021/01/06 04:01:20;;;;;;;7.23;5.53;;;;;;;4.31;65.20;101358.09;5116725;28;20872;-67
2021/01/06 04:04:09;;;;;;;8.10;6.00;;;;;;;4.05;66.59;101347.50;5099645;28;20424;-68
2021/01/06 04:06:35;;;;;;;8.53;6.53;;;;;;;4.20;65.75;101344.72;5099679;28;20482;-68
2021/01/06 04:09:03;;;;;;;6.87;6.17;;;;;;;4.21;66.05;101349.94;5099606;28;20812;-69
2021/01/06 04:11:31;;;;;;;6.27;5.60;;;;;;;4.19;66.33;101350.69;5099527;28;20270;-68
2021/01/06 04:13:57;;;;;;;8.60;6.27;;;;;;;4.25;68.38;101339.75;5099792;28;20405;-68
2021/01/06 04:16:23;;;;;;;7.00;6.30;;;;;;;3.85;66.31;101351.72;5099364;28;20414;-69
2021/01/06 04:18:48;;;;;;;6.70;6.00;;;;;;;4.04;66.43;101349.16;5099992;28;20740;-67
2021/01/06 04:21:14;;;;;;;6.90;6.20;;;;;;;4.54;64.82;101339.34;5100295;28;20213;-68
2021/01/06 04:23:39;;;;;;;7.07;6.37;;;;;;;3.99;66.31;101347.19;5099750;28;20208;-67
2021/01/06 04:26:04;;;;;;;6.13;5.57;;;;;;;3.80;66.11;101343.78;5099984;28;20195;-68
2021/01/06 04:28:33;;;;;;;7.23;5.97;;;;;;;3.75;67.83;101339.19;5100248;28;20251;-69
2021/01/06 04:31:01;;;;;;;7.87;5.87;;;;;;;4.05;65.96;101327.72;5098926;28;20168;-70
2021/01/06 04:33:38;;;;;;;6.87;6.17;;;;;;;4.30;64.96;101330.53;5099668;28;20810;-68
2021/01/06 04:36:17;;;;;;;6.50;5.90;;;;;;;4.30;64.43;101333.09;5099458;28;20440;-68
2021/01/06 04:38:45;;;;;;;8.40;6.73;;;;;;;4.18;65.20;101326.59;5099626;28;20429;-68
2021/01/06 04:41:29;;;;;;;9.20;5.73;;;;;;;4.26;66.17;101326.03;5099166;28;20521;-68
2021/01/06 04:44:19;;;;;;;7.90;6.00;;;;;;;4.20;65.53;101322.38;5098671;28;20414;-69
2021/01/06 04:47:36;;;;;;;6.70;6.00;;;;;;;3.97;67.22;101317.88;5098426;28;20911;-67
2021/01/06 04:50:26;;;;;;;6.40;5.80;;;;;;;4.28;66.75;101317.56;5057510;28;20412;-69
2021/01/06 04:53:15;;;;;;;7.73;6.10;;;;;;;4.21;65.78;101315.53;5057508;28;20587;-68
2021/01/06 04:56:05;;;;;;;5.90;5.30;;;;;;;3.98;66.63;101310.19;5074208;28;20422;-68
2021/01/06 04:58:40;;;;;;;7.83;5.87;;;;;;;4.04;65.87;101307.00;5099162;28;20411;-68
2021/01/06 05:01:43;;;;;;;7.07;6.37;;;;;;;4.47;65.29;101302.88;5098388;28;20405;-69
2021/01/06 05:04:29;;;;;;;7.10;5.87;;;;;;;4.26;65.86;101306.25;5099214;28;20466;-69
2021/01/06 05:07:32;;;;;;;7.70;5.70;;;;;;;4.27;66.53;101296.84;5098459;28;20754;-69
2021/01/06 05:10:24;;;;;;;7.27;6.10;;;;;;;4.22;65.17;101294.03;5099032;28;20422;-67
2021/01/06 05:12:51;;;;;;;7.73;6.17;;;;;;;3.75;66.72;101295.34;5098457;28;20766;-68
2021/01/06 05:15:49;;;;;;;7.00;5.73;;;;;;;4.31;66.45;101288.41;5098241;28;20747;-69
2021/01/06 05:18:14;;;;;;;7.27;6.10;;;;;;;4.27;64.48;101284.81;5075875;28;20414;-68
2021/01/06 05:20:39;;;;;;;8.20;6.10;;;;;;;3.86;66.00;101289.88;5098276;28;20467;-69
2021/01/06 05:23:14;;;;;;;6.90;6.20;;;;;;;4.41;65.06;101287.13;5098706;28;20176;-68
2021/01/06 05:25:39;;;;;;;8.37;6.00;;;;;;;4.67;63.93;101288.25;5098284;28;20191;-68
2021/01/06 05:28:11;;;;;;;9.40;6.80;;;;;;;4.31;65.35;101278.97;5098740;28;20423;-68
2021/01/06 05:30:36;;;;;;;6.70;6.00;;;;;;;4.36;65.06;101281.75;5097743;28;20172;-68
2021/01/06 05:33:07;;;;;;;7.20;5.80;;;;;;;4.47;65.63;101277.06;5098459;28;20722;-69
2021/01/06 05:35:41;;;;;;;7.83;6.63;;;;;;;4.00;66.07;101281.88;5098750;28;20576;-68
2021/01/06 05:38:07;;;;;;;8.13;6.50;;;;;;;4.22;65.44;101273.41;5098456;28;20418;-68
2021/01/06 05:40:34;;;;;;;9.07;6.70;;;;;;;4.38;67.69;101268.13;5097801;28;20503;-68
2021/01/06 05:43:21;;;;;;;8.87;6.30;;;;;;;4.47;65.33;101275.34;5098523;28;20168;-68
2021/01/06 05:45:52;;;;;;;7.93;6.27;;;;;;;4.60;64.98;101270.72;5097969;28;20445;-69
2021/01/06 05:48:23;;;;;;;8.00;6.67;;;;;;;4.70;63.63;101267.72;5114775;28;20411;-68
2021/01/06 05:51:17;;;;;;;9.93;6.30;;;;;;;4.51;64.25;101266.94;5114486;28;20422;-68
2021/01/06 05:54:06;;;;;;;9.70;6.10;;;;;;;4.51;66.58;101266.94;5114623;28;20475;-69
2021/01/06 05:57:10;;;;;;;8.43;6.70;;;;;;;4.52;64.59;101262.66;5114636;28;20861;-68
2021/01/06 06:00:07;;;;;;;7.20;6.00;;;;;;;4.15;65.80;101268.78;5097599;28;20417;-68
2021/01/06 06:02:58;;;;;;;7.30;6.60;;;;;;;4.47;64.87;101259.88;5098007;28;20436;-68
2021/01/06 06:05:54;;;;;;;8.40;6.60;;;;;;;4.36;65.86;101267.16;5097657;28;20417;-68
2021/01/06 06:08:42;;;;;;;9.80;6.67;;;;;;;4.18;66.67;101256.00;5098121;28;20450;-68
2021/01/06 06:11:27;;;;;;;7.67;6.47;;;;;;;4.13;66.73;101254.94;5114372;28;20499;-67
2021/01/06 06:14:05;;;;;;;6.90;6.20;;;;;;;4.48;64.95;101256.47;5114161;28;20418;-67
2021/01/06 06:16:38;;;;;;;6.73;5.93;;;;;;;4.46;64.28;101252.94;5097519;28;20422;-68
2021/01/06 06:19:14;;;;;;;6.50;5.80;;;;;;;4.07;66.49;101246.94;5098258;28;20413;-68
2021/01/06 06:22:06;;;;;;;8.70;7.30;;;;;;;4.53;65.07;101239.47;5098059;28;20470;-68
2021/01/06 06:24:46;;;;;;;9.03;6.77;;;;;;;4.89;64.36;101234.06;5097600;28;20474;-69
2021/01/06 06:27:35;;;;;;;11.07;8.53;;;;;;;4.19;65.96;101240.63;5097896;28;20488;-68
2021/01/06 06:30:10;;;;;;;9.37;6.90;;;;;;;4.42;64.78;101237.25;5097128;28;20506;-69
2021/01/06 06:32:36;;;;;;;7.80;6.80;;;;;;;4.23;66.40;101239.03;5098152;28;20676;-68
2021/01/06 06:35:23;;;;;;;9.57;6.97;;;;;;;4.66;64.22;101242.56;5097221;28;20429;-68
2021/01/06 06:37:51;;;;;;;9.53;7.23;;;;;;;4.47;65.05;101241.78;5096948;28;20453;-67
2021/01/06 06:40:17;;;;;;;8.10;6.63;;;;;;;4.09;66.39;101238.44;5096810;28;20446;-68
2021/01/06 06:42:51;;;;;;;8.00;6.80;;;;;;;4.24;70.20;101240.81;5096957;28;20539;-68
2021/01/06 06:45:24;;;;;;;7.20;6.50;;;;;;;4.43;66.65;101236.44;5096912;28;20168;-68
2021/01/06 06:47:50;;;;;;;10.07;7.70;;;;;;;4.28;69.00;101231.50;5098058;28;21199;-68
2021/01/06 06:50:37;;;;;;;7.57;6.00;;;;;;;4.35;66.78;101229.25;5098268;28;20411;-67
2021/01/06 06:53:38;;;;;;;7.90;6.67;;;;;;;4.41;66.66;101233.81;5097118;28;20179;-67
2021/01/06 06:56:15;;;;;;;7.77;6.30;;;;;;;4.30;67.30;101238.50;5097676;28;20410;-68
2021/01/06 06:58:41;;;;;;;9.33;6.90;;;;;;;4.19;67.69;101234.56;5097488;28;20417;-67
2021/01/06 07:01:13;;;;;;;11.07;7.27;;;;;;;4.16;67.72;101235.31;5100535;28;20425;-68
2021/01/06 07:03:43;;;;;;;8.33;6.93;;;;;;;4.48;67.37;101235.81;5105457;28;20587;-68
2021/01/06 07:06:11;;;;;;;8.70;7.37;;;;;;;4.53;67.18;101231.75;5100637;28;20730;-68
2021/01/06 07:08:43;;;;;;;9.27;6.73;;;;;;;5.47;76.62;101226.84;5105312;28;20428;-71
2021/01/06 07:11:14;;;;;;;8.57;6.90;;;;;;;11.08;67.36;101207.16;5099638;28;20414;-65
2021/01/06 07:13:40;;;;;;;7.10;6.40;;;;;;;6.15;61.92;101226.78;5101500;28;20414;-67
2021/01/06 07:16:14;;;;;;;9.10;7.10;;;;;;;4.41;67.21;101235.47;5100581;28;20418;-71
2021/01/06 07:18:51;;;;;;;7.73;6.93;;;;;;;3.93;68.99;101238.59;5101264;28;20172;-71
2021/01/06 07:21:22;;;;;;;8.17;6.80;;;;;;;4.18;69.56;101233.69;5100394;28;20417;-71
2021/01/06 07:24:02;;;;;;;8.40;6.97;;;;;;;3.77;69.04;101240.44;5101054;28;20544;-69
2021/01/06 07:26:30;;;;;;;8.70;7.03;;;;;;;4.05;70.48;101231.38;5101056;28;20461;-69
2021/01/06 07:29:03;;;;;;;9.83;7.23;;;;;;;3.87;70.75;101227.16;5100391;28;20657;-70
2021/01/06 07:31:32;;;;;;;8.10;7.23;;;;;;;3.96;69.97;101231.84;5100443;28;20426;-70
2021/01/06 07:34:00;;;;;;;10.27;7.57;;;;;;;3.90;71.06;101235.84;5100153;28;20823;-70
2021/01/06 07:36:28;;;;;;;9.40;7.90;;;;;;;3.77;71.06;101237.88;5100453;28;20799;-70
2021/01/06 07:38:55;;;;;;;13.83;10.47;;;;;;;4.03;71.02;101228.75;5100614;28;20776;-70
2021/01/06 07:41:21;;;;;;;12.53;9.70;;;;;;;3.77;71.70;101234.44;5099988;28;20755;-70
2021/01/06 07:44:03;;;;;;;12.40;8.70;;;;;;;3.73;71.40;101229.94;5100120;28;20828;-70
2021/01/06 07:46:45;;;;;;;10.27;8.67;;;;;;;3.78;73.06;101233.63;5100515;28;20457;-70
2021/01/06 07:49:28;;;;;;;10.83;8.43;;;;;;;3.62;72.27;101232.91;5099916;28;20414;-67
2021/01/06 07:51:59;;;;;;;10.60;8.20;;;;;;;3.80;72.28;101239.72;5100142;28;20410;-68
2021/01/06 07:54:44;;;;;;;11.50;9.00;;;;;;;3.81;72.42;101237.19;5100485;28;20410;-67
2021/01/06 07:57:12;;;;;;;9.83;8.27;;;;;;;3.86;71.97;101227.09;5101153;28;20457;-67
2021/01/06 07:59:45;;;;;;;10.20;8.67;;;;;;;3.58;72.47;101233.56;5100435;28;20428;-67
2021/01/06 08:02:17;;;;;;;13.80;9.40;;;;;;;3.79;71.95;101233.69;5100100;28;20440;-68
2021/01/06 08:04:54;;;;;;;11.23;8.67;;;;;;;3.36;74.29;101234.28;5100045;28;20839;-67
2021/01/06 08:07:21;;;;;;;10.27;9.23;;;;;;;3.96;72.34;101223.22;5100830;28;20457;-67
2021/01/06 08:09:48;;;;;;;11.17;8.70;;;;;;;3.43;73.59;101228.59;5100656;28;20418;-69
2021/01/06 08:12:20;;;;;;;11.90;8.40;;;;;;;3.41;72.74;101226.75;5099033;28;20458;-67
2021/01/06 08:14:46;;;;;;;9.93;8.37;;;;;;;3.23;73.89;101234.53;5100016;28;20735;-66
2021/01/06 08:17:43;;;;;;;11.43;9.23;;;;;;;3.16;74.28;101234.22;5100625;28;20406;-68
2021/01/06 08:20:10;;;;;;;9.33;7.80;;;;;;;3.34;73.71;101226.50;5098520;28;20180;-68
2021/01/06 08:22:40;;;;;;;10.47;8.70;;;;;;;3.27;73.98;101224.41;5098157;28;20414;-68
2021/01/06 08:25:14;;;;;;;11.30;8.90;;;;;;;3.59;73.30;101219.88;5099088;28;20477;-69
2021/01/06 08:27:39;;;;;;;13.40;9.80;;;;;;;3.15;74.83;101221.25;5099641;28;20484;-67
2021/01/06 08:30:11;;;;;;;14.70;9.70;;;;;;;3.25;73.62;101210.59;5099663;28;20733;-68
2021/01/06 08:32:36;;;;;;;11.10;9.30;;;;;;;3.15;73.92;101213.53;5099797;28;20441;-68
2021/01/06 08:35:07;;;;;;;11.27;8.97;;;;;;;3.63;72.93;101214.06;5100162;28;20421;-68
2021/01/06 08:37:35;;;;;;;12.13;9.37;;;;;;;3.33;73.35;101211.84;5099945;28;20221;-68
2021/01/06 08:40:02;;;;;;;12.40;9.37;;;;;;;3.26;74.39;101204.63;5099671;28;20418;-68
2021/01/06 08:42:44;;;;;;;11.40;8.70;;;;;;;3.56;72.26;101205.97;5099755;28;20502;-68
2021/01/06 08:45:21;;;;;;;8.90;7.27;;;;;;;3.69;71.44;101198.88;5098991;28;20464;-69
2021/01/06 08:47:47;;;;;;;14.50;9.03;;;;;;;3.71;72.25;101192.06;5099273;28;20462;-68
2021/01/06 08:50:15;;;;;;;10.37;8.77;;;;;;;3.26;73.07;101207.22;5099344;28;20414;-68
2021/01/06 08:52:42;;;;;;;10.63;8.50;;;;;;;3.76;72.16;101204.28;5099441;28;20682;-68
2021/01/06 08:55:24;;;;;;;16.33;9.07;;;;;;;3.14;74.19;101199.78;5099451;28;20407;-69
2021/01/06 08:57:58;;;;;;;10.57;9.30;;;;;;;3.21;73.80;101206.09;5099312;28;20462;-67
2021/01/06 09:00:36;;;;;;;13.40;9.47;;;;;;;3.12;74.75;101197.94;5098728;28;20803;-68
2021/01/06 09:03:18;;;;;;;11.60;9.00;;;;;;;3.07;74.32;101199.41;5107318;28;20422;-68
2021/01/06 09:05:45;;;;;;;14.93;10.20;;;;;;;3.14;74.83;101196.31;5107157;28;20678;-67
2021/01/06 09:08:19;;;;;;;15.63;9.10;;;;;;;2.91;74.54;101197.78;5108677;28;20417;-68
2021/01/06 09:10:56;;;;;;;12.27;9.10;;;;;;;2.85;75.72;101199.25;5109576;28;20436;-67
2021/01/06 09:13:29;;;;;;;9.50;8.50;;;;;;;3.11;74.55;101196.16;5109870;28;20783;-68
2021/01/06 09:16:01;;;;;;;9.63;8.60;;;;;;;3.07;74.66;101202.84;5108017;28;20460;-68
2021/01/06 09:18:34;;;;;;;9.90;7.73;;;;;;;3.42;74.09;101195.91;5099747;28;20452;-71
2021/01/06 09:21:09;;;;;;;7.70;6.40;;;;;;;6.87;73.79;101173.94;5107967;28;20417;-67
2021/01/06 09:23:34;;;;;;;11.27;8.10;;;;;;;6.66;65.06;101173.25;5107321;28;20461;-69
2021/01/06 09:26:00;;;;;;;10.97;7.40;;;;;;;7.81;65.30;101167.19;5111954;28;20763;-68
2021/01/06 09:28:27;;;;;;;10.00;6.50;;;;;;;6.42;64.03;101166.41;5118254;28;20439;-69
2021/01/06 09:30:52;;;;;;;7.10;6.20;;;;;;;6.84;72.79;101166.03;5117999;28;20707;-68
2021/01/06 09:33:25;;;;;;;7.40;6.70;;;;;;;7.91;57.78;101164.00;5118247;28;20450;-70
2021/01/06 09:35:51;;;;;;;7.07;6.37;;;;;;;4.59;66.94;101169.13;5118015;28;20163;-70
2021/01/06 09:38:36;;;;;;;7.43;6.73;;;;;;;3.70;71.00;101168.81;5119040;28;20425;-69
2021/01/06 09:41:08;;;;;;;7.37;6.00;;;;;;;3.83;70.53;101165.03;5118097;28;20172;-69
2021/01/06 09:43:39;;;;;;;9.37;7.70;;;;;;;4.17;70.66;101169.13;5118774;28;20406;-70
2021/01/06 09:46:20;;;;;;;10.63;7.77;;;;;;;3.73;70.72;101162.91;5117910;28;20469;-69
2021/01/06 09:48:51;;;;;;;37.73;23.83;;;;;;;4.09;70.94;101165.34;5118036;28;20417;-70
2021/01/06 09:51:18;;;;;;;13.33;10.43;;;;;;;3.80;71.20;101167.50;5117889;28;20695;-69
2021/01/06 09:53:43;;;;;;;13.53;8.83;;;;;;;3.67;71.65;101168.66;5117864;28;20401;-71
2021/01/06 09:56:13;;;;;;;11.13;8.77;;;;;;;4.19;70.96;101165.78;5118218;28;20657;-68
2021/01/06 09:58:39;;;;;;;12.70;8.80;;;;;;;3.92;70.96;101164.59;5117860;28;20207;-69
2021/01/06 10:01:26;;;;;;;13.40;8.90;;;;;;;4.20;70.71;101166.66;5110796;27;20417;-68
2021/01/06 10:03:54;;;;;;;10.80;8.33;;;;;;;4.01;71.08;101160.69;5117771;27;20671;-70
2021/01/06 10:06:37;;;;;;;9.17;8.00;;;;;;;4.00;71.44;101158.94;5107358;28;20506;-70
2021/01/06 10:09:10;;;;;;;9.50;8.50;;;;;;;4.02;71.71;101156.44;5123967;27;20417;-69
2021/01/06 10:11:50;;;;;;;10.50;8.13;;;;;;;4.08;70.79;101156.69;5117130;28;20445;-72
2021/01/06 10:14:40;;;;;;;10.67;8.57;;;;;;;4.64;68.55;101149.56;5134478;27;20428;-70
2021/01/06 10:17:16;;;;;;;10.73;8.67;;;;;;;4.30;69.79;101139.53;5122962;27;20508;-68
2021/01/06 10:19:54;;;;;;;10.23;8.23;;;;;;;3.82;70.73;101140.97;5118106;27;20425;-69
2021/01/06 10:22:34;;;;;;;10.30;9.30;;;;;;;3.92;71.71;101129.34;5132570;27;20415;-68
2021/01/06 10:25:09;;;;;;;12.60;9.30;;;;;;;3.69;72.42;101137.00;5124955;27;20336;-68
2021/01/06 10:27:40;;;;;;;9.13;7.77;;;;;;;3.72;72.44;101128.47;5122073;27;20865;-69
2021/01/06 10:30:12;;;;;;;11.63;9.27;;;;;;;3.86;71.63;101123.94;5124183;27;20515;-69
2021/01/06 10:33:04;;;;;;;9.87;8.40;;;;;;;4.22;71.13;101118.56;5122787;27;20420;-71
2021/01/06 10:35:37;;;;;;;11.60;8.50;;;;;;;4.05;70.87;101113.56;5122527;27;20513;-71
2021/01/06 10:38:27;;;;;;;8.60;7.70;;;;;;;3.83;71.08;101114.38;5120732;27;20438;-69
2021/01/06 10:41:23;;;;;;;8.77;7.97;;;;;;;3.84;72.54;101113.56;5112985;27;20417;-68
2021/01/06 10:43:53;;;;;;;8.33;7.33;;;;;;;3.79;71.85;101103.84;5131679;27;20688;-67
2021/01/06 10:46:42;;;;;;;8.73;7.20;;;;;;;3.05;74.55;101108.31;5106910;27;20465;-68
2021/01/06 10:49:19;;;;;;;9.03;7.10;;;;;;;3.32;73.42;101103.53;5114434;27;20425;-70
2021/01/06 10:51:54;;;;;;;9.20;6.90;;;;;;;3.68;72.46;101101.69;5119516;27;20457;-75
2021/01/06 10:54:29;;;;;;;8.20;7.00;;;;;;;3.52;72.71;101099.28;5106456;28;20416;-71
2021/01/06 10:56:55;;;;;;;9.63;7.67;;;;;;;3.36;73.85;101095.13;5117581;27;20487;-71
2021/01/06 10:59:20;;;;;;;8.80;8.00;;;;;;;4.08;71.91;101078.41;5123801;28;20527;-72
2021/01/06 11:02:34;;;;;;;9.60;7.70;;;;;;;3.65;72.18;101085.19;5114392;28;20433;-71
2021/01/06 11:05:20;;;;;;;7.73;6.90;;;;;;;3.24;73.88;101073.97;5120265;28;20265;-73
2021/01/06 11:07:57;;;;;;;8.17;7.30;;;;;;;4.01;70.74;101074.69;5105106;28;20473;-68
2021/01/06 11:11:08;;;;;;;7.80;6.83;;;;;;;4.47;70.06;101061.06;5111914;28;20466;-68
2021/01/06 11:13:56;;;;;;;8.00;6.70;;;;;;;4.60;68.88;101066.72;5128911;27;20436;-72
2021/01/06 11:16:45;;;;;;;7.40;6.53;;;;;;;3.97;70.55;101065.94;5103126;28;20444;-66
2021/01/06 11:19:42;;;;;;;8.60;7.03;;;;;;;4.06;70.42;101060.28;5124454;28;20433;-70
2021/01/06 11:22:20;;;;;;;8.90;6.27;;;;;;;4.24;71.65;101051.53;5117781;28;20409;-69
2021/01/06 11:24:51;;;;;;;8.17;7.03;;;;;;;3.91;71.67;101057.97;5129458;27;20461;-70
2021/01/06 11:27:35;;;;;;;7.60;6.83;;;;;;;3.98;72.03;101049.66;5127318;28;20490;-70
2021/01/06 11:30:12;;;;;;;9.03;6.57;;;;;;;3.78;72.14;101040.22;5112671;27;20448;-69
2021/01/06 11:32:38;;;;;;;6.87;5.87;;;;;;;3.84;72.46;101038.78;5127212;28;20423;-69
2021/01/06 11:35:31;;;;;;;10.30;6.97;;;;;;;4.47;69.82;101031.81;5126272;27;20455;-69
2021/01/06 11:37:58;;;;;;;6.47;5.87;;;;;;;4.66;68.70;101026.50;5101518;28;20843;-69
2021/01/06 11:40:26;;;;;;;6.60;6.00;;;;;;;4.38;70.35;101017.72;5117802;27;20426;-69
2021/01/06 11:42:56;;;;;;;6.70;6.00;;;;;;;4.07;70.60;101025.03;5111722;28;20663;-69
2021/01/06 11:45:23;;;;;;;6.53;5.93;;;;;;;3.86;71.60;101020.78;5123042;28;20428;-69
2021/01/06 11:47:57;;;;;;;6.83;6.13;;;;;;;3.61;72.31;101022.31;5131366;27;20460;-68
2021/01/06 11:50:36;;;;;;;10.93;6.17;;;;;;;4.38;70.07;101007.41;5103253;28;20817;-69
2021/01/06 11:53:16;;;;;;;9.90;7.47;;;;;;;4.28;70.24;101007.84;5126208;27;20425;-70
2021/01/06 11:55:48;;;;;;;6.20;5.60;;;;;;;3.86;71.51;101011.31;5130079;27;20485;-68
2021/01/06 11:58:26;;;;;;;7.10;6.20;;;;;;;4.00;71.46;101005.84;5137002;27;20426;-69
2021/01/06 12:01:09;;;;;;;6.70;6.10;;;;;;;3.55;72.45;101004.00;5126873;27;20422;-69
2021/01/06 12:03:41;;;;;;;7.10;6.07;;;;;;;3.88;72.21;100993.34;5133327;27;20419;-69